createdAt,value
2023-05-22T00:00:09.040Z,96717.53
2023-05-22T00:02:35.560Z,96718.03
2023-05-22T00:05:02.136Z,96713.81
2023-05-22T00:07:28.616Z,96711.91
2023-05-22T00:09:55.037Z,96701.63
2023-05-22T00:12:21.500Z,96707.34
2023-05-22T00:14:47.900Z,96705.69
2023-05-22T00:17:14.374Z,96711.63
2023-05-22T00:19:40.989Z,96710.03
2023-05-22T00:22:07.432Z,96705.50
2023-05-22T00:24:33.964Z,96703.13
2023-05-22T00:27:00.590Z,96699.69
2023-05-22T00:29:27.044Z,96705.59
2023-05-22T00:31:53.477Z,96711.69
2023-05-22T00:34:20.005Z,96704.09
2023-05-22T00:36:46.503Z,96706.19
2023-05-22T00:39:12.931Z,96703.91
2023-05-22T00:41:39.425Z,96704.78
2023-05-22T00:44:05.864Z,96706.38
2023-05-22T00:46:32.493Z,96699.56
2023-05-22T00:48:59.001Z,96708.19
2023-05-22T00:51:25.426Z,96707.22
2023-05-22T00:53:51.858Z,96708.88
2023-05-22T00:56:18.301Z,96707.03
2023-05-22T00:58:44.864Z,96705.06
2023-05-22T01:01:11.289Z,96697.25
2023-05-22T01:03:37.801Z,96697.94
2023-05-22T01:06:04.256Z,96708.72
2023-05-22T01:08:30.771Z,96706.00
2023-05-22T01:10:57.242Z,96711.66
2023-05-22T01:13:23.811Z,96706.97
2023-05-22T01:15:50.449Z,96709.31
2023-05-22T01:18:16.947Z,96703.72
2023-05-22T01:20:43.443Z,96707.03
2023-05-22T01:23:09.872Z,96701.88
2023-05-22T01:25:36.327Z,96702.81
2023-05-22T01:28:02.796Z,96704.63
2023-05-22T01:30:29.326Z,96702.53
2023-05-22T01:32:55.897Z,96701.50
2023-05-22T01:35:22.371Z,96698.44
2023-05-22T01:37:48.852Z,96699.69
2023-05-22T01:40:15.311Z,96700.00
2023-05-22T01:42:41.747Z,96692.59
2023-05-22T01:45:08.283Z,96695.66
2023-05-22T01:47:34.770Z,96695.56
2023-05-22T01:50:01.279Z,96697.25
2023-05-22T01:52:27.732Z,96697.56
2023-05-22T01:54:54.277Z,96692.97
2023-05-22T01:57:20.796Z,96698.50
2023-05-22T01:59:47.233Z,96698.91
2023-05-22T02:02:13.711Z,96704.63
2023-05-22T02:04:40.227Z,96707.66
2023-05-22T02:07:06.688Z,96704.25
2023-05-22T02:09:33.116Z,96704.59
2023-05-22T02:11:59.551Z,96700.22
2023-05-22T02:14:25.997Z,96713.25
2023-05-22T02:16:52.445Z,96705.75
2023-05-22T02:19:19.029Z,96710.25
2023-05-22T02:21:45.477Z,96709.00
2023-05-22T02:24:11.881Z,96701.13
2023-05-22T02:26:38.327Z,96700.06
2023-05-22T02:29:04.785Z,96707.97
2023-05-22T02:31:31.250Z,96714.19
2023-05-22T02:33:57.707Z,96701.25
2023-05-22T02:36:24.181Z,96704.44
2023-05-22T02:38:50.663Z,96701.38
2023-05-22T02:41:17.078Z,96708.38
2023-05-22T02:43:43.489Z,96711.59
2023-05-22T02:46:10.082Z,96711.09
2023-05-22T02:48:36.561Z,96705.16
2023-05-22T02:51:02.984Z,96702.41
2023-05-22T02:53:29.449Z,96696.03
2023-05-22T02:55:55.912Z,96700.59
2023-05-22T02:58:22.372Z,96705.03
2023-05-22T03:00:48.863Z,96702.78
2023-05-22T03:03:15.407Z,96701.78
2023-05-22T03:05:41.845Z,96702.53
2023-05-22T03:08:08.314Z,96696.84
2023-05-22T03:10:34.874Z,96704.38
2023-05-22T03:13:01.285Z,96702.03
2023-05-22T03:15:27.757Z,96702.91
2023-05-22T03:17:54.310Z,96705.56
2023-05-22T03:20:20.791Z,96698.56
2023-05-22T03:22:47.258Z,96699.88
2023-05-22T03:25:13.737Z,96696.72
2023-05-22T03:27:40.153Z,96695.09
2023-05-22T03:30:06.634Z,96703.44
2023-05-22T03:32:33.161Z,96702.56
2023-05-22T03:34:59.638Z,96696.91
2023-05-22T03:37:26.084Z,96694.97
2023-05-22T03:39:52.632Z,96686.88
2023-05-22T03:42:19.098Z,96695.59
2023-05-22T03:44:45.511Z,96697.25
2023-05-22T03:47:11.942Z,96689.78
2023-05-22T03:49:38.355Z,96695.13
2023-05-22T03:52:04.823Z,96694.06
2023-05-22T03:54:31.301Z,96700.84
2023-05-22T03:56:57.727Z,96696.28
2023-05-22T03:59:24.245Z,96700.84
2023-05-22T04:01:50.656Z,96696.84
2023-05-22T04:04:17.100Z,96700.56
2023-05-22T04:06:43.683Z,96707.00
2023-05-22T04:09:10.147Z,96709.13
2023-05-22T04:11:36.576Z,96701.78
2023-05-22T04:14:02.998Z,96695.56
2023-05-22T04:16:29.560Z,96699.31
2023-05-22T04:18:56.231Z,96702.47
2023-05-22T04:21:22.680Z,96704.88
2023-05-22T04:23:49.122Z,96714.88
2023-05-22T04:26:15.558Z,96709.72
2023-05-22T04:28:42.003Z,96711.00
2023-05-22T04:31:08.454Z,96709.63
2023-05-22T04:33:34.997Z,96713.88
2023-05-22T04:36:01.427Z,96712.56
2023-05-22T04:38:27.947Z,96713.63
2023-05-22T04:40:54.370Z,96710.78
2023-05-22T04:43:20.798Z,96720.66
2023-05-22T04:45:47.247Z,96713.84
2023-05-22T04:48:13.693Z,96722.44
2023-05-22T04:50:40.639Z,96717.31
2023-05-22T04:53:07.218Z,96719.50
2023-05-22T04:55:33.639Z,96722.38
2023-05-22T04:58:00.057Z,96729.66
2023-05-22T05:00:26.542Z,96731.78
2023-05-22T05:02:53.034Z,96730.69
2023-05-22T05:05:19.544Z,96733.91
2023-05-22T05:07:47.160Z,96735.53
2023-05-22T05:10:14.861Z,96731.00
2023-05-22T05:12:41.272Z,96734.25
2023-05-22T05:15:07.702Z,96728.63
2023-05-22T05:17:34.241Z,96735.06
2023-05-22T05:20:00.726Z,96728.34
2023-05-22T05:22:27.224Z,96728.47
2023-05-22T05:24:53.677Z,96735.72
2023-05-22T05:27:20.090Z,96731.00
2023-05-22T05:29:46.529Z,96741.56
2023-05-22T05:32:12.996Z,96733.19
2023-05-22T05:34:39.552Z,96732.00
2023-05-22T05:37:06.008Z,96733.91
2023-05-22T05:39:32.448Z,96735.69
2023-05-22T05:41:58.886Z,96731.09
2023-05-22T05:44:25.333Z,96737.19
2023-05-22T05:46:51.776Z,96743.03
2023-05-22T05:49:18.206Z,96742.75
2023-05-22T05:51:44.656Z,96745.81
2023-05-22T05:54:11.097Z,96741.41
2023-05-22T05:56:37.595Z,96758.38
2023-05-22T05:59:04.037Z,96750.69
2023-05-22T06:01:30.478Z,96750.69
2023-05-22T06:03:57.039Z,96751.19
2023-05-22T06:06:23.552Z,96744.13
2023-05-22T06:08:50.136Z,96743.72
2023-05-22T06:11:16.596Z,96737.91
2023-05-22T06:13:43.031Z,96740.97
2023-05-22T06:16:09.685Z,96742.22
2023-05-22T06:18:36.265Z,96750.63
2023-05-22T06:21:02.690Z,96745.06
2023-05-22T06:23:29.172Z,96742.34
2023-05-22T06:25:55.636Z,96750.59
2023-05-22T06:28:22.282Z,96751.09
2023-05-22T06:30:48.879Z,96753.59
2023-05-22T06:33:15.554Z,96759.81
2023-05-22T06:35:42.096Z,96756.88
2023-05-22T06:38:08.525Z,96762.72
2023-05-22T06:40:34.991Z,96761.13
2023-05-22T06:43:01.466Z,96754.72
2023-05-22T06:45:28.113Z,96751.69
2023-05-22T06:47:54.613Z,96753.22
2023-05-22T06:50:21.127Z,96745.00
2023-05-22T06:52:47.523Z,96752.03
2023-05-22T06:55:13.962Z,96753.88
2023-05-22T06:57:40.403Z,96754.75
2023-05-22T07:00:06.849Z,96761.00
2023-05-22T07:02:33.329Z,96760.09
2023-05-22T07:04:59.780Z,96767.34
2023-05-22T07:07:26.253Z,96764.88
2023-05-22T07:09:52.687Z,96764.28
2023-05-22T07:12:19.175Z,96767.81
2023-05-22T07:14:45.591Z,96767.59
2023-05-22T07:17:12.097Z,96767.53
2023-05-22T07:19:38.582Z,96779.25
2023-05-22T07:22:05.133Z,96767.22
2023-05-22T07:24:31.564Z,96769.72
2023-05-22T07:26:58.021Z,96770.41
2023-05-22T07:29:24.449Z,96766.78
2023-05-22T07:31:50.949Z,96768.91
2023-05-22T07:34:17.431Z,96776.53
2023-05-22T07:36:43.854Z,96767.91
2023-05-22T07:39:10.311Z,96771.81
2023-05-22T07:41:36.807Z,96778.59
2023-05-22T07:44:03.342Z,96775.81
2023-05-22T07:46:29.827Z,96768.88
2023-05-22T07:48:56.284Z,96771.72
2023-05-22T07:51:22.716Z,96773.22
2023-05-22T07:53:49.159Z,96777.94
2023-05-22T07:56:15.623Z,96774.25
2023-05-22T07:58:42.059Z,96761.22
2023-05-22T08:01:09.629Z,96771.44
2023-05-22T08:03:36.462Z,96766.00
2023-05-22T08:06:03.051Z,96766.53
2023-05-22T08:08:31.680Z,96765.31
2023-05-22T08:13:27.941Z,96766.91
2023-05-22T08:16:00.467Z,96767.25
2023-05-22T08:18:27.478Z,96756.56
2023-05-22T08:20:54.949Z,96756.38
2023-05-22T08:23:21.534Z,96760.44
2023-05-22T08:25:47.949Z,96748.66
2023-05-22T08:28:14.379Z,96749.94
2023-05-22T08:30:41.054Z,96746.81
2023-05-22T08:33:07.749Z,96745.34
2023-05-22T08:35:34.360Z,96737.38
2023-05-22T08:38:00.788Z,96744.53
2023-05-22T08:40:27.304Z,96738.97
2023-05-22T08:42:55.077Z,96741.00
2023-05-22T08:45:21.695Z,96742.00
2023-05-22T08:47:48.171Z,96736.72
2023-05-22T08:50:14.654Z,96737.81
2023-05-22T08:52:41.099Z,96733.63
2023-05-22T08:55:07.554Z,96728.63
2023-05-22T08:57:33.994Z,96727.03
2023-05-22T09:00:00.413Z,96730.50
2023-05-22T09:02:26.879Z,96725.88
2023-05-22T09:04:53.367Z,96722.28
2023-05-22T09:07:19.861Z,96723.16
2023-05-22T09:09:46.447Z,96723.25
2023-05-22T09:12:13.018Z,96727.72
2023-05-22T09:14:39.479Z,96725.94
2023-05-22T09:17:05.996Z,96726.41
2023-05-22T09:19:32.653Z,96724.72
2023-05-22T09:21:59.155Z,96719.66
2023-05-22T09:24:25.605Z,96727.06
2023-05-22T09:26:52.094Z,96722.94
2023-05-22T09:29:18.533Z,96718.25
2023-05-22T09:31:45.231Z,96711.97
2023-05-22T09:34:11.909Z,96715.25
2023-05-22T09:36:38.312Z,96713.19
2023-05-22T09:39:04.860Z,96707.28
2023-05-22T09:41:31.280Z,96711.59
2023-05-22T09:43:59.748Z,96712.75
2023-05-22T09:46:27.606Z,96708.72
2023-05-22T09:48:54.108Z,96704.88
2023-05-22T09:51:20.508Z,96709.69
2023-05-22T09:53:46.950Z,96699.94
2023-05-22T09:56:13.894Z,96700.09
2023-05-22T09:58:41.160Z,96697.41
2023-05-22T10:01:07.635Z,96698.34
2023-05-22T10:03:34.064Z,96701.38
2023-05-22T10:06:00.521Z,96689.69
2023-05-22T10:08:27.140Z,96682.50
2023-05-22T10:10:53.586Z,96684.44
2023-05-22T10:13:20.049Z,96689.03
2023-05-22T10:15:46.528Z,96695.28
2023-05-22T10:18:13.068Z,96684.09
2023-05-22T10:20:39.744Z,96679.72
2023-05-22T10:23:06.453Z,96687.44
2023-05-22T10:25:32.894Z,96684.38
2023-05-22T10:27:59.321Z,96689.81
2023-05-22T10:30:25.836Z,96690.63
2023-05-22T10:32:52.293Z,96685.81
2023-05-22T10:35:18.712Z,96681.50
2023-05-22T10:37:45.216Z,96686.75
2023-05-22T10:40:11.643Z,96680.88
2023-05-22T10:42:38.218Z,96679.13
2023-05-22T10:45:04.742Z,96664.09
2023-05-22T10:47:31.207Z,96667.09
2023-05-22T10:49:57.726Z,96668.31
2023-05-22T10:52:24.139Z,96666.72
2023-05-22T10:54:50.591Z,96663.53
2023-05-22T10:57:17.079Z,96660.25
2023-05-22T10:59:43.474Z,96653.25
2023-05-22T11:02:11.563Z,96663.16
2023-05-22T11:04:38.482Z,96658.31
2023-05-22T11:07:04.961Z,96659.75
2023-05-22T11:09:31.391Z,96650.78
2023-05-22T11:11:57.856Z,96651.91
2023-05-22T11:14:24.327Z,96653.06
2023-05-22T11:16:50.842Z,96649.50
2023-05-22T11:21:46.592Z,96637.25
2023-05-22T11:24:13.028Z,96636.75
2023-05-22T11:26:39.467Z,96631.25
2023-05-22T11:29:06.000Z,96643.22
2023-05-22T11:31:32.543Z,96637.84
2023-05-22T11:33:58.992Z,96629.88
2023-05-22T11:36:25.419Z,96637.88
2023-05-22T11:38:51.936Z,96632.06
2023-05-22T11:41:18.381Z,96636.06
2023-05-22T11:43:44.815Z,96638.38
2023-05-22T11:46:11.315Z,96631.66
2023-05-22T11:48:37.838Z,96629.13
2023-05-22T11:51:04.269Z,96630.41
2023-05-22T11:53:30.681Z,96626.22
2023-05-22T11:55:57.174Z,96626.31
2023-05-22T11:58:23.603Z,96625.25
2023-05-22T12:00:50.089Z,96622.84
2023-05-22T12:03:16.663Z,96621.72
2023-05-22T12:05:43.191Z,96615.06
2023-05-22T12:08:09.597Z,96612.06
2023-05-22T12:10:36.024Z,96614.59
2023-05-22T12:13:02.479Z,96600.56
2023-05-22T12:15:28.968Z,96608.00
2023-05-22T12:17:55.645Z,96612.34
2023-05-22T12:20:22.135Z,96608.16
2023-05-22T12:22:48.662Z,96606.81
2023-05-22T12:25:15.103Z,96599.84
2023-05-22T12:27:41.547Z,96599.25
2023-05-22T12:30:07.988Z,96597.50
2023-05-22T12:32:34.497Z,96587.16
2023-05-22T12:35:01.006Z,96597.59
2023-05-22T12:37:27.465Z,96594.69
2023-05-22T12:39:53.863Z,96592.63
2023-05-22T12:42:20.267Z,96598.09
2023-05-22T12:44:46.717Z,96596.56
2023-05-22T12:47:13.264Z,96593.38
2023-05-22T12:49:39.711Z,96593.25
2023-05-22T12:52:06.117Z,96602.22
2023-05-22T12:54:32.547Z,96597.38
2023-05-22T12:56:59.000Z,96601.69
2023-05-22T12:59:25.437Z,96604.53
2023-05-22T13:01:51.954Z,96598.41
2023-05-22T13:04:18.517Z,96602.53
2023-05-22T13:06:44.969Z,96589.19
2023-05-22T13:09:11.436Z,96600.47
2023-05-22T13:11:37.884Z,96594.31
2023-05-22T13:14:04.350Z,96596.84
2023-05-22T13:16:30.819Z,96602.00
2023-05-22T13:18:57.298Z,96611.41
2023-05-22T13:21:26.321Z,96604.94
2023-05-22T13:23:53.013Z,96606.00
2023-05-22T13:26:19.454Z,96596.88
2023-05-22T13:28:46.041Z,96599.63
2023-05-22T13:31:12.470Z,96597.34
2023-05-22T13:33:38.941Z,96597.03
2023-05-22T13:36:05.408Z,96596.56
2023-05-22T13:38:31.838Z,96604.97
2023-05-22T13:40:58.284Z,96596.78
2023-05-22T13:43:24.706Z,96600.28
2023-05-22T13:45:51.199Z,96598.34
2023-05-22T13:48:18.154Z,96598.13
2023-05-22T13:50:44.603Z,96602.00
2023-05-22T13:53:11.108Z,96604.06
2023-05-22T13:55:37.859Z,96596.66
2023-05-22T13:58:04.483Z,96598.38
2023-05-22T14:00:30.895Z,96598.25
2023-05-22T14:02:57.379Z,96601.94
2023-05-22T14:05:23.888Z,96626.66
2023-05-22T14:07:50.441Z,96612.59
2023-05-22T14:10:16.898Z,96630.22
2023-05-22T14:12:43.361Z,96618.66
2023-05-22T14:15:09.880Z,96631.41
2023-05-22T14:17:36.554Z,96633.63
2023-05-22T14:20:03.325Z,96632.09
2023-05-22T14:22:30.631Z,96625.22
2023-05-22T14:24:59.143Z,96622.66
2023-05-22T14:27:25.570Z,96618.69
2023-05-22T14:29:52.033Z,96622.06
2023-05-22T14:32:18.490Z,96622.25
2023-05-22T14:34:44.924Z,96625.78
2023-05-22T14:37:11.372Z,96619.41
2023-05-22T14:39:37.786Z,96610.94
2023-05-22T14:42:05.987Z,96595.47
2023-05-22T14:44:32.510Z,96593.81
2023-05-22T14:46:58.970Z,96585.94
2023-05-22T14:49:25.619Z,96588.81
2023-05-22T14:51:52.069Z,96583.28
2023-05-22T14:54:18.540Z,96576.31
2023-05-22T14:56:45.128Z,96573.47
2023-05-22T14:59:11.580Z,96583.13
2023-05-22T15:01:38.013Z,96577.19
2023-05-22T15:04:04.551Z,96577.84
2023-05-22T15:06:31.041Z,96573.81
2023-05-22T15:08:57.589Z,96567.13
2023-05-22T15:11:24.017Z,96571.00
2023-05-22T15:13:50.429Z,96566.31
2023-05-22T15:16:17.030Z,96576.44
2023-05-22T15:18:43.476Z,96555.56
2023-05-22T15:21:10.138Z,96563.72
2023-05-22T15:23:36.574Z,96552.78
2023-05-22T15:26:03.281Z,96566.47
2023-05-22T15:28:29.706Z,96552.53
2023-05-22T15:30:56.155Z,96546.91
2023-05-22T15:33:22.655Z,96547.75
2023-05-22T15:35:49.200Z,96551.09
2023-05-22T15:38:15.649Z,96552.47
2023-05-22T15:40:42.070Z,96549.59
2023-05-22T15:43:08.570Z,96543.75
2023-05-22T15:45:35.155Z,96547.38
2023-05-22T15:48:01.625Z,96543.91
2023-05-22T15:50:28.381Z,96550.03
2023-05-22T15:52:54.798Z,96547.34
2023-05-22T15:55:21.262Z,96535.88
2023-05-22T15:57:47.772Z,96533.91
2023-05-22T16:00:15.235Z,96534.53
2023-05-22T16:02:42.974Z,96533.44
2023-05-22T16:05:09.624Z,96525.47
2023-05-22T16:07:36.244Z,96531.22
2023-05-22T16:10:02.759Z,96522.72
2023-05-22T16:12:29.333Z,96524.78
2023-05-22T16:15:00.240Z,96518.25
2023-05-22T16:17:27.384Z,96510.09
2023-05-22T16:19:53.960Z,96514.78
2023-05-22T16:22:20.422Z,96527.50
2023-05-22T16:24:46.945Z,96525.56
2023-05-22T16:27:13.366Z,96522.88
2023-05-22T16:29:39.783Z,96524.88
2023-05-22T16:32:06.246Z,96530.00
2023-05-22T16:34:32.758Z,96524.06
2023-05-22T16:36:59.449Z,96523.78
2023-05-22T16:39:25.878Z,96528.41
2023-05-22T16:41:53.824Z,96525.22
2023-05-22T16:44:20.521Z,96531.81
2023-05-22T16:46:47.025Z,96537.84
2023-05-22T16:49:13.549Z,96535.16
2023-05-22T16:51:40.123Z,96534.78
2023-05-22T16:54:06.564Z,96534.34
2023-05-22T16:56:33.007Z,96530.75
2023-05-22T16:58:59.463Z,96533.56
2023-05-22T17:01:25.972Z,96532.88
2023-05-22T17:03:52.499Z,96524.47
2023-05-22T17:06:20.965Z,96528.50
2023-05-22T17:08:47.612Z,96526.13
2023-05-22T17:11:14.033Z,96517.59
2023-05-22T17:13:40.491Z,96530.13
2023-05-22T17:16:06.925Z,96525.84
2023-05-22T17:18:35.956Z,96517.38
2023-05-22T17:21:02.377Z,96522.06
2023-05-22T17:23:28.852Z,96527.97
2023-05-22T17:25:55.399Z,96535.22
2023-05-22T17:28:21.833Z,96531.66
2023-05-22T17:30:48.314Z,96541.50
2023-05-22T17:33:14.939Z,96542.25
2023-05-22T17:35:41.450Z,96548.25
2023-05-22T17:38:08.006Z,96552.06
2023-05-22T17:40:44.209Z,96549.25
2023-05-22T17:43:11.759Z,96555.81
2023-05-22T17:45:38.257Z,96561.59
2023-05-22T17:48:04.713Z,96557.47
2023-05-22T17:50:31.220Z,96560.63
2023-05-22T17:52:57.827Z,96567.19
2023-05-22T17:55:24.281Z,96573.03
2023-05-22T17:57:50.919Z,96564.25
2023-05-22T18:00:17.354Z,96570.41
2023-05-22T18:02:43.818Z,96574.97
2023-05-22T18:05:10.478Z,96575.69
2023-05-22T18:07:37.012Z,96591.41
2023-05-22T18:10:03.453Z,96590.72
2023-05-22T18:12:32.318Z,96597.88
2023-05-22T18:14:58.965Z,96601.28
2023-05-22T18:17:25.408Z,96592.03
2023-05-22T18:19:51.945Z,96596.63
2023-05-22T18:22:18.456Z,96596.56
2023-05-22T18:24:44.914Z,96599.50
2023-05-22T18:27:11.420Z,96603.44
2023-05-22T18:29:37.855Z,96602.72
2023-05-22T18:32:04.328Z,96601.25
2023-05-22T18:34:30.784Z,96599.16
2023-05-22T18:36:57.296Z,96602.94
2023-05-22T18:39:23.759Z,96609.13
2023-05-22T18:41:50.169Z,96597.38
2023-05-22T18:44:16.592Z,96610.09
2023-05-22T18:46:43.026Z,96609.91
2023-05-22T18:49:09.510Z,96609.03
2023-05-22T18:51:35.908Z,96617.59
2023-05-22T18:54:02.325Z,96614.88
2023-05-22T18:56:28.765Z,96622.47
2023-05-22T18:58:55.280Z,96620.72
2023-05-22T19:01:21.759Z,96618.47
2023-05-22T19:03:48.293Z,96625.22
2023-05-22T19:06:14.856Z,96620.63
2023-05-22T19:08:41.354Z,96632.16
2023-05-22T19:11:07.952Z,96630.41
2023-05-22T19:13:34.411Z,96634.63
2023-05-22T19:16:00.884Z,96631.13
2023-05-22T19:18:27.337Z,96644.56
2023-05-22T19:20:54.004Z,96638.81
2023-05-22T19:23:20.642Z,96637.88
2023-05-22T19:25:47.064Z,96640.28
2023-05-22T19:28:13.473Z,96653.88
2023-05-22T19:30:40.332Z,96648.13
2023-05-22T19:33:08.885Z,96649.91
2023-05-22T19:35:35.613Z,96652.91
2023-05-22T19:38:02.051Z,96659.31
2023-05-22T19:40:28.531Z,96662.34
2023-05-22T19:42:55.065Z,96657.84
2023-05-22T19:45:21.521Z,96660.22
2023-05-22T19:47:48.230Z,96667.72
2023-05-22T19:50:14.729Z,96669.13
2023-05-22T19:52:41.163Z,96664.19
2023-05-22T19:55:07.620Z,96675.84
2023-05-22T19:57:34.099Z,96668.34
2023-05-22T20:00:00.551Z,96682.72
2023-05-22T20:02:27.084Z,96681.41
2023-05-22T20:04:53.701Z,96686.00
2023-05-22T20:07:20.153Z,96681.81
2023-05-22T20:09:46.579Z,96690.94
2023-05-22T20:12:12.976Z,96682.16
2023-05-22T20:14:39.442Z,96684.84
2023-05-22T20:17:05.868Z,96684.56
2023-05-22T20:19:32.455Z,96690.22
2023-05-22T20:21:59.109Z,96694.97
2023-05-22T20:24:25.573Z,96700.41
2023-05-22T20:26:52.025Z,96705.22
2023-05-22T20:29:18.457Z,96706.38
2023-05-22T20:31:44.936Z,96711.72
2023-05-22T20:34:11.408Z,96712.13
2023-05-22T20:36:37.887Z,96715.13
2023-05-22T20:39:04.347Z,96719.69
2023-05-22T20:41:30.802Z,96721.66
2023-05-22T20:43:57.198Z,96718.28
2023-05-22T20:46:23.629Z,96722.28
2023-05-22T20:48:50.066Z,96726.53
2023-05-22T20:51:16.489Z,96715.66
2023-05-22T20:53:42.964Z,96726.38
2023-05-22T20:56:09.416Z,96726.66
2023-05-22T20:58:37.376Z,96730.56
2023-05-22T21:01:05.521Z,96737.59
2023-05-22T21:03:31.983Z,96736.72
2023-05-22T21:05:58.477Z,96739.78
2023-05-22T21:08:25.001Z,96740.91
2023-05-22T21:10:51.444Z,96739.13
2023-05-22T21:13:17.935Z,96740.91
2023-05-22T21:15:44.526Z,96742.50
2023-05-22T21:18:10.959Z,96742.34
2023-05-22T21:20:37.414Z,96745.72
2023-05-22T21:23:03.907Z,96755.19
2023-05-22T21:25:30.357Z,96753.13
2023-05-22T21:27:56.792Z,96755.84
2023-05-22T21:30:23.256Z,96751.56
2023-05-22T21:32:49.698Z,96746.75
2023-05-22T21:35:16.126Z,96746.25
2023-05-22T21:37:42.567Z,96747.47
2023-05-22T21:40:08.954Z,96748.94
2023-05-22T21:42:45.940Z,96750.97
2023-05-22T21:45:13.723Z,96759.16
2023-05-22T21:47:40.212Z,96754.72
2023-05-22T21:50:06.693Z,96755.88
2023-05-22T21:52:33.098Z,96752.97
2023-05-22T21:54:59.507Z,96750.84
2023-05-22T21:57:25.925Z,96755.00
2023-05-22T21:59:52.362Z,96758.19
2023-05-22T22:02:18.762Z,96759.72
2023-05-22T22:04:45.194Z,96758.00
2023-05-22T22:07:11.854Z,96767.75
2023-05-22T22:09:38.293Z,96767.34
2023-05-22T22:12:04.694Z,96764.41
2023-05-22T22:14:31.157Z,96772.03
2023-05-22T22:16:57.633Z,96770.63
2023-05-22T22:19:24.318Z,96771.84
2023-05-22T22:21:50.942Z,96768.53
2023-05-22T22:24:17.363Z,96762.28
2023-05-22T22:26:43.764Z,96771.03
2023-05-22T22:29:10.209Z,96776.16
2023-05-22T22:31:36.672Z,96779.66
2023-05-22T22:34:03.134Z,96774.44
2023-05-22T22:36:29.594Z,96781.06
2023-05-22T22:38:56.045Z,96786.16
2023-05-22T22:41:22.481Z,96784.75
2023-05-22T22:43:48.937Z,96777.47
2023-05-22T22:46:15.378Z,96787.59
2023-05-22T22:48:41.831Z,96785.56
2023-05-22T22:51:08.261Z,96787.25
2023-05-22T22:53:34.666Z,96776.50
2023-05-22T22:56:01.163Z,96776.81
2023-05-22T22:58:27.660Z,96777.53
2023-05-22T23:00:54.086Z,96790.88
2023-05-22T23:03:20.530Z,96797.72
2023-05-22T23:05:47.000Z,96793.22
2023-05-22T23:08:13.469Z,96792.13
2023-05-22T23:10:39.890Z,96795.59
2023-05-22T23:13:06.313Z,96798.59
2023-05-22T23:15:32.908Z,96792.78
2023-05-22T23:17:59.390Z,96792.34
2023-05-22T23:20:25.862Z,96791.47
2023-05-22T23:22:52.326Z,96790.84
2023-05-22T23:25:18.866Z,96794.47
2023-05-22T23:27:45.515Z,96799.50
2023-05-22T23:30:11.915Z,96795.66
2023-05-22T23:32:38.372Z,96809.00
2023-05-22T23:35:04.769Z,96809.41
2023-05-22T23:37:31.339Z,96795.28
2023-05-22T23:39:57.800Z,96794.75
2023-05-22T23:42:24.233Z,96809.22
2023-05-22T23:44:50.656Z,96807.09
2023-05-22T23:47:17.099Z,96807.31
2023-05-22T23:49:43.541Z,96802.41
2023-05-22T23:52:10.109Z,96805.47
2023-05-22T23:54:36.536Z,96797.88
2023-05-22T23:57:02.954Z,96795.09
2023-05-22T23:59:29.398Z,96797.88
